createdAt,value
2023-02-13T00:00:23.898Z,14.25
2023-02-13T00:02:51.129Z,13.73
2023-02-13T00:05:19.218Z,15.27
2023-02-13T00:07:46.430Z,15.02
2023-02-13T00:10:13.615Z,14.93
2023-02-13T00:12:40.874Z,18.15
2023-02-13T00:15:08.454Z,14.38
2023-02-13T00:17:35.689Z,15.15
2023-02-13T00:20:02.906Z,16.80
2023-02-13T00:22:30.012Z,16.92
2023-02-13T00:24:57.209Z,14.80
2023-02-13T00:27:24.380Z,16.38
2023-02-13T00:29:51.623Z,15.73
2023-02-13T00:32:18.836Z,15.75
2023-02-13T00:34:46.054Z,15.50
2023-02-13T00:37:13.187Z,17.60
2023-02-13T00:39:40.390Z,16.77
2023-02-13T00:42:07.559Z,16.73
2023-02-13T00:44:34.802Z,15.27
2023-02-13T00:47:01.988Z,14.98
2023-02-13T00:49:29.182Z,16.48
2023-02-13T00:51:56.383Z,15.98
2023-02-13T00:54:23.532Z,15.60
2023-02-13T00:56:50.820Z,15.88
2023-02-13T00:59:18.176Z,16.35
2023-02-13T01:01:45.493Z,15.70
2023-02-13T01:04:12.732Z,15.90
2023-02-13T01:06:40.075Z,16.52
2023-02-13T01:09:07.217Z,15.70
2023-02-13T01:11:34.357Z,15.50
2023-02-13T01:14:01.515Z,15.57
2023-02-13T01:16:28.667Z,16.75
2023-02-13T01:18:55.956Z,17.25
2023-02-13T01:21:24.107Z,15.60
2023-02-13T01:23:51.730Z,16.35
2023-02-13T01:26:23.331Z,16.30
2023-02-13T01:28:53.618Z,16.30
2023-02-13T01:31:21.585Z,16.70
2023-02-13T01:33:48.781Z,15.18
2023-02-13T01:36:16.187Z,15.38
2023-02-13T01:38:43.852Z,17.35
2023-02-13T01:41:11.737Z,16.38
2023-02-13T01:43:44.680Z,15.48
2023-02-13T01:46:12.573Z,15.13
2023-02-13T01:48:39.768Z,16.05
2023-02-13T01:51:09.313Z,16.65
2023-02-13T01:53:39.139Z,16.35
2023-02-13T01:56:12.666Z,15.70
2023-02-13T01:58:41.025Z,15.02
2023-02-13T02:01:09.446Z,15.73
2023-02-13T02:03:38.930Z,15.98
2023-02-13T02:06:08.455Z,15.88
2023-02-13T02:08:36.499Z,15.00
2023-02-13T02:11:07.720Z,16.45
2023-02-13T02:13:34.921Z,14.75
2023-02-13T02:16:03.075Z,15.40
2023-02-13T02:18:30.511Z,14.95
2023-02-13T02:21:10.153Z,14.68
2023-02-13T02:23:56.285Z,13.75
2023-02-13T02:26:42.144Z,14.32
2023-02-13T02:29:24.546Z,12.50
2023-02-13T02:32:10.261Z,12.70
2023-02-13T02:34:43.637Z,13.02
2023-02-13T02:37:28.133Z,12.40
2023-02-13T02:39:58.356Z,13.23
2023-02-13T02:42:25.479Z,14.07
2023-02-13T02:45:15.883Z,14.13
2023-02-13T02:48:19.786Z,12.98
2023-02-13T02:51:02.299Z,13.50
2023-02-13T02:53:36.549Z,12.57
2023-02-13T02:56:09.384Z,12.40
2023-02-13T02:59:11.439Z,12.45
2023-02-13T03:01:57.801Z,11.98
2023-02-13T03:04:46.444Z,12.07
2023-02-13T03:07:15.711Z,12.85
2023-02-13T03:10:03.306Z,13.25
2023-02-13T03:12:52.997Z,12.73
2023-02-13T03:15:20.320Z,12.27
2023-02-13T03:18:06.400Z,12.68
2023-02-13T03:20:52.250Z,11.90
2023-02-13T03:23:42.754Z,12.23
2023-02-13T03:26:13.005Z,11.95
2023-02-13T03:28:59.077Z,13.15
2023-02-13T03:31:38.643Z,12.95
2023-02-13T03:34:07.648Z,12.52
2023-02-13T03:36:56.803Z,12.45
2023-02-13T03:39:26.653Z,13.07
2023-02-13T03:41:59.180Z,13.18
2023-02-13T03:44:41.913Z,12.45
2023-02-13T03:47:10.174Z,12.70
2023-02-13T03:49:58.571Z,13.20
2023-02-13T03:52:28.019Z,12.85
2023-02-13T03:55:33.761Z,12.60
2023-02-13T03:58:22.695Z,13.23
2023-02-13T04:00:53.134Z,12.77
2023-02-13T04:03:29.909Z,12.57
2023-02-13T04:06:14.242Z,12.27
2023-02-13T04:08:41.478Z,11.10
2023-02-13T04:11:16.210Z,11.40
2023-02-13T04:14:03.645Z,11.75
2023-02-13T04:16:32.972Z,12.70
2023-02-13T04:19:01.358Z,12.23
2023-02-13T04:21:28.655Z,10.98
2023-02-13T04:23:55.916Z,11.95
2023-02-13T04:26:24.066Z,12.15
2023-02-13T04:28:51.240Z,11.63
2023-02-13T04:31:18.540Z,11.30
2023-02-13T04:33:45.733Z,11.45
2023-02-13T04:36:12.915Z,11.55
2023-02-13T04:38:40.083Z,11.23
2023-02-13T04:41:07.278Z,10.63
2023-02-13T04:43:34.400Z,11.05
2023-02-13T04:46:01.605Z,10.82
2023-02-13T04:48:28.800Z,11.15
2023-02-13T04:50:56.193Z,11.35
2023-02-13T04:53:23.469Z,11.05
2023-02-13T04:55:50.691Z,12.07
2023-02-13T04:58:17.847Z,10.48
2023-02-13T05:00:45.025Z,10.85
2023-02-13T05:03:14.007Z,11.30
2023-02-13T05:05:41.265Z,11.35
2023-02-13T05:08:09.100Z,11.93
2023-02-13T05:10:36.264Z,11.25
2023-02-13T05:13:03.447Z,11.95
2023-02-13T05:15:30.654Z,12.55
2023-02-13T05:17:57.846Z,13.00
2023-02-13T05:20:25.072Z,12.68
2023-02-13T05:23:12.775Z,11.32
2023-02-13T05:25:41.152Z,12.10
2023-02-13T05:28:28.426Z,12.70
2023-02-13T05:30:55.813Z,12.45
2023-02-13T05:33:23.118Z,12.70
2023-02-13T05:35:50.283Z,13.07
2023-02-13T05:38:17.444Z,13.82
2023-02-13T05:40:44.594Z,12.98
2023-02-13T05:43:11.848Z,13.70
2023-02-13T05:45:39.047Z,12.93
2023-02-13T05:48:06.249Z,12.45
2023-02-13T05:50:33.390Z,12.93
2023-02-13T05:53:00.593Z,13.20
2023-02-13T05:55:27.754Z,13.35
2023-02-13T05:57:58.099Z,14.60
2023-02-13T06:00:25.591Z,13.48
2023-02-13T06:02:52.799Z,13.50
2023-02-13T06:05:20.045Z,13.80
2023-02-13T06:07:47.249Z,14.10
2023-02-13T06:10:14.380Z,13.65
2023-02-13T06:12:41.529Z,14.30
2023-02-13T06:15:08.789Z,14.65
2023-02-13T06:17:36.014Z,15.32
2023-02-13T06:20:03.310Z,13.65
2023-02-13T06:22:30.474Z,13.73
2023-02-13T06:24:57.650Z,15.10
2023-02-13T06:27:24.835Z,12.95
2023-02-13T06:29:51.993Z,14.57
2023-02-13T06:32:19.124Z,14.27
2023-02-13T06:34:46.279Z,14.45
2023-02-13T06:37:13.418Z,14.43
2023-02-13T06:39:40.605Z,13.23
2023-02-13T06:42:07.745Z,13.93
2023-02-13T06:44:34.893Z,15.32
2023-02-13T06:47:02.127Z,16.35
2023-02-13T06:49:29.367Z,14.95
2023-02-13T06:51:56.525Z,14.10
2023-02-13T06:54:37.081Z,13.63
2023-02-13T06:57:10.798Z,15.40
2023-02-13T06:59:37.949Z,14.55
2023-02-13T07:02:05.098Z,16.17
2023-02-13T07:04:32.242Z,16.13
2023-02-13T07:06:59.617Z,14.82
2023-02-13T07:09:26.900Z,15.07
2023-02-13T07:11:54.106Z,16.25
2023-02-13T07:14:21.263Z,15.20
2023-02-13T07:16:48.443Z,14.50
2023-02-13T07:19:15.581Z,15.02
2023-02-13T07:21:42.761Z,14.30
2023-02-13T07:24:09.975Z,13.45
2023-02-13T07:26:37.114Z,13.88
2023-02-13T07:29:11.560Z,13.68
2023-02-13T07:31:39.851Z,14.43
2023-02-13T07:34:07.117Z,13.10
2023-02-13T07:36:34.375Z,13.57
2023-02-13T07:39:01.607Z,12.90
2023-02-13T07:41:28.804Z,14.60
2023-02-13T07:43:56.035Z,14.25
2023-02-13T07:46:23.330Z,14.50
2023-02-13T07:48:52.866Z,14.88
2023-02-13T07:51:20.142Z,14.45
2023-02-13T07:53:47.371Z,15.20
2023-02-13T07:56:14.490Z,15.13
2023-02-13T07:58:41.661Z,15.07
2023-02-13T08:01:09.642Z,15.43
2023-02-13T08:03:37.164Z,13.85
2023-02-13T08:06:04.913Z,14.02
2023-02-13T08:08:32.025Z,15.20
2023-02-13T08:11:22.948Z,14.23
2023-02-13T08:13:50.065Z,13.65
2023-02-13T08:16:17.344Z,14.27
2023-02-13T08:18:44.584Z,14.15
2023-02-13T08:21:11.762Z,13.52
2023-02-13T08:23:38.949Z,13.15
2023-02-13T08:26:06.116Z,12.60
2023-02-13T08:28:33.302Z,13.80
2023-02-13T08:31:00.549Z,12.88
2023-02-13T08:33:27.710Z,14.38
2023-02-13T08:35:55.106Z,16.08
2023-02-13T08:38:22.439Z,14.55
2023-02-13T08:40:49.602Z,15.05
2023-02-13T08:43:16.758Z,13.90
2023-02-13T08:45:43.880Z,14.20
2023-02-13T08:48:11.108Z,15.88
2023-02-13T08:50:38.329Z,16.27
2023-02-13T08:53:05.825Z,14.10
2023-02-13T08:55:33.054Z,16.70
2023-02-13T08:58:01.668Z,16.05
2023-02-13T09:00:29.520Z,16.17
2023-02-13T09:02:56.758Z,16.33
2023-02-13T09:05:24.002Z,15.05
2023-02-13T09:07:51.283Z,15.98
2023-02-13T09:10:18.865Z,15.88
2023-02-13T09:12:52.406Z,16.30
2023-02-13T09:15:19.542Z,15.73
2023-02-13T09:17:46.690Z,17.30
2023-02-13T09:20:14.141Z,16.63
2023-02-13T09:22:41.755Z,15.55
2023-02-13T09:25:09.120Z,15.13
2023-02-13T09:27:37.333Z,15.85
2023-02-13T09:30:04.578Z,15.50
2023-02-13T09:32:31.745Z,16.25
2023-02-13T09:34:58.906Z,16.48
2023-02-13T09:37:26.987Z,15.73
2023-02-13T09:39:54.216Z,15.38
2023-02-13T09:42:27.101Z,16.27
2023-02-13T09:44:56.304Z,16.73
2023-02-13T09:47:29.574Z,16.02
2023-02-13T09:49:59.685Z,16.67
2023-02-13T09:52:32.897Z,16.27
2023-02-13T09:55:00.046Z,16.23
2023-02-13T09:57:27.213Z,16.85
2023-02-13T09:59:57.459Z,14.95
2023-02-13T10:02:27.591Z,15.68
2023-02-13T10:04:57.880Z,17.13
2023-02-13T10:07:34.930Z,15.88
2023-02-13T10:10:21.073Z,16.60
2023-02-13T10:12:57.722Z,16.60
2023-02-13T10:15:37.147Z,15.45
2023-02-13T10:18:05.968Z,16.90
2023-02-13T10:20:35.228Z,16.13
2023-02-13T10:23:25.497Z,15.43
2023-02-13T10:26:00.550Z,15.13
2023-02-13T10:28:30.839Z,16.55
2023-02-13T10:31:00.583Z,16.35
2023-02-13T10:33:46.572Z,15.13
2023-02-13T10:36:19.312Z,16.38
2023-02-13T10:38:55.701Z,16.98
2023-02-13T10:41:22.847Z,15.98
2023-02-13T10:44:18.047Z,16.02
2023-02-13T10:47:03.677Z,14.57
2023-02-13T10:49:49.180Z,15.85
2023-02-13T10:52:26.852Z,16.95
2023-02-13T10:55:03.372Z,16.23
2023-02-13T10:57:40.383Z,15.50
2023-02-13T11:00:25.841Z,17.13
2023-02-13T11:02:53.042Z,14.88
2023-02-13T11:05:22.733Z,15.25
2023-02-13T11:07:49.965Z,16.50
2023-02-13T11:10:21.465Z,16.42
2023-02-13T11:12:49.361Z,16.20
2023-02-13T11:15:22.893Z,16.55
2023-02-13T11:17:51.397Z,14.93
2023-02-13T11:20:28.026Z,15.85
2023-02-13T11:22:55.880Z,15.70
2023-02-13T11:25:26.855Z,15.48
2023-02-13T11:28:08.717Z,15.23
2023-02-13T11:30:37.831Z,15.50
2023-02-13T11:33:06.231Z,14.75
2023-02-13T11:35:34.586Z,15.23
2023-02-13T11:38:10.958Z,15.25
2023-02-13T11:40:38.769Z,16.50
2023-02-13T11:43:07.316Z,15.48
2023-02-13T11:45:34.613Z,15.00
2023-02-13T11:48:01.800Z,14.82
2023-02-13T11:50:38.193Z,14.52
2023-02-13T11:53:07.653Z,16.45
2023-02-13T11:55:39.096Z,17.65
2023-02-13T11:58:06.320Z,16.23
2023-02-13T12:00:38.904Z,15.75
2023-02-13T12:03:25.503Z,15.85
2023-02-13T12:06:08.018Z,15.15
2023-02-13T12:08:38.929Z,15.63
2023-02-13T12:11:26.381Z,14.98
2023-02-13T12:13:53.749Z,14.75
2023-02-13T12:16:20.952Z,14.40
2023-02-13T12:18:51.730Z,13.27
2023-02-13T12:21:44.164Z,14.57
2023-02-13T12:24:34.875Z,14.90
2023-02-13T12:27:20.974Z,14.55
2023-02-13T12:29:57.496Z,14.32
2023-02-13T12:32:30.479Z,15.73
2023-02-13T12:35:15.564Z,14.85
2023-02-13T12:37:47.025Z,15.43
2023-02-13T12:40:32.634Z,15.02
2023-02-13T12:43:13.782Z,16.00
2023-02-13T12:45:40.899Z,14.88
2023-02-13T12:48:22.749Z,14.48
2023-02-13T12:50:59.409Z,14.98
2023-02-13T12:53:27.939Z,13.57
2023-02-13T12:56:05.834Z,13.90
2023-02-13T12:59:02.463Z,14.65
2023-02-13T13:01:46.375Z,13.50
2023-02-13T13:04:32.998Z,13.18
2023-02-13T13:07:18.544Z,14.57
2023-02-13T13:09:46.380Z,12.88
2023-02-13T13:12:46.119Z,13.57
2023-02-13T13:15:31.335Z,13.18
2023-02-13T13:20:31.906Z,13.68
2023-02-13T13:23:18.054Z,12.80
2023-02-13T13:25:54.350Z,12.55
2023-02-13T13:28:23.864Z,12.85
2023-02-13T13:30:51.330Z,12.63
2023-02-13T13:33:20.605Z,13.60
2023-02-13T13:36:01.390Z,13.80
2023-02-13T13:38:31.537Z,11.65
2023-02-13T13:41:21.574Z,13.13
2023-02-13T13:43:57.994Z,12.38
2023-02-13T13:46:35.350Z,11.70
2023-02-13T13:49:24.298Z,12.32
2023-02-13T13:51:51.496Z,12.43
2023-02-13T13:54:20.360Z,12.82
2023-02-13T13:56:53.673Z,12.60
2023-02-13T13:59:41.041Z,13.75
2023-02-13T14:02:28.422Z,13.00
2023-02-13T14:05:14.144Z,11.82
2023-02-13T14:07:42.292Z,12.60
2023-02-13T14:10:38.085Z,11.30
2023-02-13T14:13:07.903Z,11.77
2023-02-13T14:15:35.101Z,11.82
2023-02-13T14:18:07.987Z,12.40
2023-02-13T14:20:37.136Z,11.45
2023-02-13T14:23:19.980Z,11.35
2023-02-13T14:25:47.882Z,11.48
2023-02-13T14:28:25.605Z,11.75
2023-02-13T14:30:56.728Z,11.45
2023-02-13T14:33:31.707Z,12.00
2023-02-13T14:36:08.734Z,11.15
2023-02-13T14:38:36.499Z,12.23
2023-02-13T14:41:04.144Z,11.95
2023-02-13T14:43:31.348Z,11.82
2023-02-13T14:46:09.669Z,12.63
2023-02-13T14:48:40.571Z,13.48
2023-02-13T14:51:08.940Z,12.55
2023-02-13T14:53:46.199Z,12.93
2023-02-13T14:56:14.883Z,12.40
2023-02-13T14:59:02.356Z,12.80
2023-02-13T15:01:34.506Z,12.70
2023-02-13T15:04:17.816Z,12.80
2023-02-13T15:06:46.290Z,12.45
2023-02-13T15:09:32.852Z,13.32
2023-02-13T15:12:00.307Z,13.93
2023-02-13T15:14:37.205Z,13.25
2023-02-13T15:17:09.570Z,12.63
2023-02-13T15:19:37.698Z,14.75
2023-02-13T15:22:06.016Z,12.10
2023-02-13T15:24:45.994Z,12.48
2023-02-13T15:27:18.482Z,12.93
2023-02-13T15:29:56.639Z,14.35
2023-02-13T15:32:28.079Z,13.48
2023-02-13T15:34:55.515Z,13.88
2023-02-13T15:37:24.295Z,14.07
2023-02-13T15:39:51.519Z,13.57
2023-02-13T15:42:18.801Z,13.88
2023-02-13T15:44:47.919Z,13.38
2023-02-13T15:47:27.547Z,14.40
2023-02-13T15:49:54.866Z,13.35
2023-02-13T15:52:30.872Z,12.77
2023-02-13T15:57:25.862Z,13.65
2023-02-13T15:59:53.785Z,14.43
2023-02-13T16:02:50.599Z,14.15
2023-02-13T16:05:26.486Z,13.32
2023-02-13T16:08:04.659Z,13.82
2023-02-13T16:10:35.747Z,12.88
2023-02-13T16:13:05.105Z,13.55
2023-02-13T16:15:34.659Z,13.65
2023-02-13T16:18:03.910Z,14.35
2023-02-13T16:20:33.814Z,14.07
2023-02-13T16:23:07.656Z,13.32
2023-02-13T16:25:36.294Z,14.50
2023-02-13T16:28:05.785Z,13.63
2023-02-13T16:30:34.722Z,13.52
2023-02-13T16:33:11.225Z,13.32
2023-02-13T16:35:39.975Z,15.18
2023-02-13T16:38:24.878Z,14.38
2023-02-13T16:40:52.225Z,14.52
2023-02-13T16:43:38.928Z,15.05
2023-02-13T16:46:24.798Z,14.50
2023-02-13T16:49:00.801Z,16.20
2023-02-13T16:51:31.190Z,13.50
2023-02-13T16:53:59.109Z,15.32
2023-02-13T16:56:26.255Z,15.30
2023-02-13T16:59:04.860Z,14.63
2023-02-13T17:01:32.042Z,15.85
2023-02-13T17:04:16.239Z,15.38
2023-02-13T17:06:43.564Z,16.25
2023-02-13T17:09:10.812Z,16.67
2023-02-13T17:11:38.198Z,16.25
2023-02-13T17:14:06.240Z,17.45
2023-02-13T17:16:34.284Z,17.40
2023-02-13T17:19:01.516Z,17.58
2023-02-13T17:21:28.734Z,18.30
2023-02-13T17:23:55.918Z,17.75
2023-02-13T17:26:23.151Z,18.20
2023-02-13T17:28:50.285Z,18.45
2023-02-13T17:31:17.559Z,18.15
2023-02-13T17:33:45.389Z,19.20
2023-02-13T17:36:13.544Z,18.33
2023-02-13T17:38:40.958Z,17.55
2023-02-13T17:41:14.073Z,18.50
2023-02-13T17:43:41.200Z,18.70
2023-02-13T17:46:08.578Z,18.13
2023-02-13T17:48:35.695Z,17.60
2023-02-13T17:51:03.036Z,18.77
2023-02-13T17:53:31.011Z,17.80
2023-02-13T17:55:58.652Z,18.50
2023-02-13T17:58:26.307Z,18.30
2023-02-13T18:00:53.765Z,17.92
2023-02-13T18:03:21.045Z,19.75
2023-02-13T18:05:49.081Z,18.63
2023-02-13T18:08:16.834Z,19.90
2023-02-13T18:10:43.954Z,18.95
2023-02-13T18:13:11.157Z,20.15
2023-02-13T18:15:43.051Z,19.75
2023-02-13T18:18:10.945Z,20.05
2023-02-13T18:20:38.270Z,18.73
2023-02-13T18:23:07.180Z,17.70
2023-02-13T18:25:34.698Z,18.67
2023-02-13T18:28:01.940Z,18.48
2023-02-13T18:30:29.528Z,19.60
2023-02-13T18:32:58.949Z,19.30
2023-02-13T18:35:26.273Z,18.80
2023-02-13T18:37:53.468Z,18.83
2023-02-13T18:40:20.723Z,18.48
2023-02-13T18:42:49.718Z,19.55
2023-02-13T18:45:17.467Z,18.42
2023-02-13T18:47:44.613Z,17.88
2023-02-13T18:50:11.965Z,18.08
2023-02-13T18:52:39.124Z,18.95
2023-02-13T18:55:07.215Z,20.75
2023-02-13T18:57:34.784Z,19.98
2023-02-13T19:00:01.969Z,20.52
2023-02-13T19:02:30.419Z,21.50
2023-02-13T19:04:57.568Z,19.80
2023-02-13T19:07:24.687Z,21.52
2023-02-13T19:09:52.369Z,22.02
2023-02-13T19:12:19.502Z,20.77
2023-02-13T19:14:47.790Z,19.85
2023-02-13T19:17:14.971Z,19.42
2023-02-13T19:19:42.132Z,19.83
2023-02-13T19:22:09.249Z,20.85
2023-02-13T19:24:36.434Z,20.55
2023-02-13T19:27:03.622Z,19.73
2023-02-13T19:29:30.742Z,19.63
2023-02-13T19:31:57.978Z,19.13
2023-02-13T19:34:25.186Z,18.17
2023-02-13T19:36:52.378Z,17.77
2023-02-13T19:39:19.570Z,18.80
2023-02-13T19:41:46.749Z,18.38
2023-02-13T19:44:14.197Z,17.73
2023-02-13T19:46:41.429Z,16.33
2023-02-13T19:49:09.933Z,15.75
2023-02-13T19:51:37.119Z,16.27
2023-02-13T19:54:04.770Z,14.80
2023-02-13T19:56:41.648Z,15.48
2023-02-13T19:59:12.295Z,16.45
2023-02-13T20:01:42.586Z,16.10
2023-02-13T20:04:10.385Z,15.82
2023-02-13T20:06:38.415Z,16.65
2023-02-13T20:09:07.364Z,15.50
2023-02-13T20:11:34.696Z,16.27
2023-02-13T20:14:01.911Z,15.98
2023-02-13T20:16:36.903Z,16.52
2023-02-13T20:19:06.969Z,16.95
2023-02-13T20:21:35.281Z,17.02
2023-02-13T20:24:05.954Z,16.33
2023-02-13T20:26:33.269Z,16.15
2023-02-13T20:29:00.933Z,16.85
2023-02-13T20:31:29.626Z,17.42
2023-02-13T20:33:57.105Z,16.55
2023-02-13T20:36:28.774Z,16.52
2023-02-13T20:38:58.098Z,17.50
2023-02-13T20:41:26.496Z,17.00
2023-02-13T20:43:54.101Z,16.05
2023-02-13T20:46:21.293Z,17.35
2023-02-13T20:48:49.014Z,16.13
2023-02-13T20:51:17.138Z,15.82
2023-02-13T20:53:44.743Z,15.55
2023-02-13T20:56:13.420Z,15.55
2023-02-13T20:58:41.193Z,15.45
2023-02-13T21:01:13.130Z,15.32
2023-02-13T21:03:40.448Z,16.77
2023-02-13T21:06:08.076Z,16.45
2023-02-13T21:08:35.419Z,15.45
2023-02-13T21:11:03.641Z,16.25
2023-02-13T21:13:32.787Z,17.48
2023-02-13T21:16:07.288Z,16.20
2023-02-13T21:18:35.099Z,16.05
2023-02-13T21:21:02.656Z,16.55
2023-02-13T21:23:29.890Z,16.27
2023-02-13T21:25:57.104Z,17.58
2023-02-13T21:28:24.330Z,16.42
2023-02-13T21:30:51.546Z,17.25
2023-02-13T21:33:18.723Z,16.45
2023-02-13T21:35:46.023Z,16.13
2023-02-13T21:38:13.175Z,17.23
2023-02-13T21:40:40.807Z,20.02
2023-02-13T21:43:07.923Z,15.55
2023-02-13T21:45:35.109Z,16.45
2023-02-13T21:48:02.298Z,16.17
2023-02-13T21:50:29.476Z,16.35
2023-02-13T21:52:56.587Z,16.85
2023-02-13T21:55:23.820Z,15.75
2023-02-13T21:57:50.961Z,16.63
2023-02-13T22:00:18.241Z,15.93
2023-02-13T22:02:45.396Z,17.00
2023-02-13T22:05:12.621Z,16.67
2023-02-13T22:07:59.739Z,16.73
2023-02-13T22:10:26.857Z,15.45
2023-02-13T22:12:54.087Z,17.08
2023-02-13T22:15:21.325Z,16.88
2023-02-13T22:17:48.708Z,17.10
2023-02-13T22:20:16.032Z,16.80
2023-02-13T22:22:43.414Z,16.80
2023-02-13T22:25:11.432Z,16.23
2023-02-13T22:27:39.098Z,16.88
2023-02-13T22:30:06.843Z,16.88
2023-02-13T22:32:34.015Z,17.17
2023-02-13T22:35:01.132Z,17.23
2023-02-13T22:37:28.321Z,16.77
2023-02-13T22:39:55.473Z,17.27
2023-02-13T22:42:22.725Z,17.10
2023-02-13T22:44:49.850Z,16.90
2023-02-13T22:47:17.155Z,17.73
2023-02-13T22:49:44.382Z,16.40
2023-02-13T22:52:11.663Z,16.85
2023-02-13T22:54:38.894Z,15.38
2023-02-13T22:57:06.101Z,15.95
2023-02-13T22:59:37.368Z,17.95
2023-02-13T23:02:06.392Z,16.67
2023-02-13T23:04:33.593Z,16.45
2023-02-13T23:07:00.775Z,16.42
2023-02-13T23:09:27.989Z,15.73
2023-02-13T23:12:13.893Z,15.65
2023-02-13T23:14:41.444Z,16.52
2023-02-13T23:17:27.329Z,16.20
2023-02-13T23:19:54.748Z,15.75
2023-02-13T23:22:21.889Z,15.77
2023-02-13T23:24:49.036Z,15.82
2023-02-13T23:27:16.254Z,15.40
2023-02-13T23:29:43.395Z,15.30
2023-02-13T23:32:10.655Z,16.20
2023-02-13T23:34:37.930Z,16.10
2023-02-13T23:37:05.089Z,16.05
2023-02-13T23:39:32.252Z,14.73
2023-02-13T23:41:59.484Z,15.85
2023-02-13T23:44:26.701Z,15.55
2023-02-13T23:46:53.826Z,16.20
2023-02-13T23:49:22.144Z,16.23
2023-02-13T23:51:49.419Z,15.73
2023-02-13T23:54:18.210Z,16.05
2023-02-13T23:56:45.427Z,16.45
2023-02-13T23:59:12.577Z,14.27
